sensor_id;sensor_type;location;lat;lon;timestamp;temperature;humidity
17891;DHT22;9071;48.220;14.480;2024-03-02T00:01:19;7.80;99.90
17891;DHT22;9071;48.220;14.480;2024-03-02T00:06:21;7.70;99.90
17891;DHT22;9071;48.220;14.480;2024-03-02T00:11:23;7.60;99.90
17891;DHT22;9071;48.220;14.480;2024-03-02T00:16:30;7.70;99.90
17891;DHT22;9071;48.220;14.480;2024-03-02T00:21:33;7.70;99.90
17891;DHT22;9071;48.220;14.480;2024-03-02T00:26:35;7.60;99.90
17891;DHT22;9071;48.220;14.480;2024-03-02T00:31:40;7.60;99.90
17891;DHT22;9071;48.220;14.480;2024-03-02T00:36:42;7.50;99.90
17891;DHT22;9071;48.220;14.480;2024-03-02T00:41:44;7.50;99.90
17891;DHT22;9071;48.220;14.480;2024-03-02T00:46:48;7.60;99.90
17891;DHT22;9071;48.220;14.480;2024-03-02T00:51:52;7.50;99.90
17891;DHT22;9071;48.220;14.480;2024-03-02T00:56:54;7.50;99.90
17891;DHT22;9071;48.220;14.480;2024-03-02T01:01:58;7.50;99.90
17891;DHT22;9071;48.220;14.480;2024-03-02T01:07:00;7.60;99.90
17891;DHT22;9071;48.220;14.480;2024-03-02T01:12:02;7.60;99.90
17891;DHT22;9071;48.220;14.480;2024-03-02T01:17:05;7.60;99.90
17891;DHT22;9071;48.220;14.480;2024-03-02T01:22:09;7.60;99.90
17891;DHT22;9071;48.220;14.480;2024-03-02T01:27:11;7.60;99.90
17891;DHT22;9071;48.220;14.480;2024-03-02T01:32:15;7.70;99.90
17891;DHT22;9071;48.220;14.480;2024-03-02T01:37:17;7.60;99.90
17891;DHT22;9071;48.220;14.480;2024-03-02T01:42:19;7.70;99.90
17891;DHT22;9071;48.220;14.480;2024-03-02T01:47:22;7.70;99.90
17891;DHT22;9071;48.220;14.480;2024-03-02T01:52:24;7.70;99.90
17891;DHT22;9071;48.220;14.480;2024-03-02T01:57:26;7.60;99.90
17891;DHT22;9071;48.220;14.480;2024-03-02T02:02:29;7.60;99.90
17891;DHT22;9071;48.220;14.480;2024-03-02T02:07:32;7.70;99.90
17891;DHT22;9071;48.220;14.480;2024-03-02T02:12:35;7.70;99.90
17891;DHT22;9071;48.220;14.480;2024-03-02T02:17:39;7.70;99.90
17891;DHT22;9071;48.220;14.480;2024-03-02T02:22:55;7.70;99.90
17891;DHT22;9071;48.220;14.480;2024-03-02T02:27:58;7.60;99.90
17891;DHT22;9071;48.220;14.480;2024-03-02T02:33:00;7.50;99.90
17891;DHT22;9071;48.220;14.480;2024-03-02T02:38:03;7.40;99.90
17891;DHT22;9071;48.220;14.480;2024-03-02T02:43:06;7.40;99.90
17891;DHT22;9071;48.220;14.480;2024-03-02T02:48:08;7.40;99.90
17891;DHT22;9071;48.220;14.480;2024-03-02T02:53:11;7.30;99.90
17891;DHT22;9071;48.220;14.480;2024-03-02T02:58:13;7.10;99.90
17891;DHT22;9071;48.220;14.480;2024-03-02T03:03:16;7.10;99.90
17891;DHT22;9071;48.220;14.480;2024-03-02T03:08:19;7.00;99.90
17891;DHT22;9071;48.220;14.480;2024-03-02T03:13:24;7.00;99.90
17891;DHT22;9071;48.220;14.480;2024-03-02T03:18:26;7.00;99.90
17891;DHT22;9071;48.220;14.480;2024-03-02T03:23:29;7.10;99.90
17891;DHT22;9071;48.220;14.480;2024-03-02T03:28:31;7.10;99.90
17891;DHT22;9071;48.220;14.480;2024-03-02T03:33:33;7.00;99.90
17891;DHT22;9071;48.220;14.480;2024-03-02T03:38:37;7.00;99.90
17891;DHT22;9071;48.220;14.480;2024-03-02T03:43:39;7.00;99.90
17891;DHT22;9071;48.220;14.480;2024-03-02T03:48:41;7.10;99.90
17891;DHT22;9071;48.220;14.480;2024-03-02T03:53:45;7.10;99.90
17891;DHT22;9071;48.220;14.480;2024-03-02T03:58:47;7.20;99.90
17891;DHT22;9071;48.220;14.480;2024-03-02T04:03:49;7.20;99.90
17891;DHT22;9071;48.220;14.480;2024-03-02T04:08:52;7.20;99.90
17891;DHT22;9071;48.220;14.480;2024-03-02T04:13:54;7.10;99.90
17891;DHT22;9071;48.220;14.480;2024-03-02T04:18:56;7.10;99.90
17891;DHT22;9071;48.220;14.480;2024-03-02T04:24:00;7.10;99.90
17891;DHT22;9071;48.220;14.480;2024-03-02T04:29:02;7.10;99.90
17891;DHT22;9071;48.220;14.480;2024-03-02T04:34:04;7.10;99.90
17891;DHT22;9071;48.220;14.480;2024-03-02T04:39:07;7.20;99.90
17891;DHT22;9071;48.220;14.480;2024-03-02T04:44:11;7.20;99.90
17891;DHT22;9071;48.220;14.480;2024-03-02T04:49:13;7.20;99.90
17891;DHT22;9071;48.220;14.480;2024-03-02T04:54:17;7.10;99.90
17891;DHT22;9071;48.220;14.480;2024-03-02T04:59:19;7.10;99.90
17891;DHT22;9071;48.220;14.480;2024-03-02T05:04:21;7.10;99.90
17891;DHT22;9071;48.220;14.480;2024-03-02T05:09:24;7.10;99.90
17891;DHT22;9071;48.220;14.480;2024-03-02T05:14:26;7.10;99.90
17891;DHT22;9071;48.220;14.480;2024-03-02T05:19:29;7.10;99.90
17891;DHT22;9071;48.220;14.480;2024-03-02T05:24:32;7.00;99.90
17891;DHT22;9071;48.220;14.480;2024-03-02T05:29:34;6.90;99.90
17891;DHT22;9071;48.220;14.480;2024-03-02T05:34:36;7.00;99.90
17891;DHT22;9071;48.220;14.480;2024-03-02T05:39:40;7.00;99.90
17891;DHT22;9071;48.220;14.480;2024-03-02T05:44:44;7.10;99.90
17891;DHT22;9071;48.220;14.480;2024-03-02T05:49:46;7.10;99.90
17891;DHT22;9071;48.220;14.480;2024-03-02T05:54:49;7.20;99.90
17891;DHT22;9071;48.220;14.480;2024-03-02T05:59:51;7.20;99.90
17891;DHT22;9071;48.220;14.480;2024-03-02T06:04:55;7.10;99.90
17891;DHT22;9071;48.220;14.480;2024-03-02T06:09:59;7.20;99.90
17891;DHT22;9071;48.220;14.480;2024-03-02T06:15:01;7.20;99.90
17891;DHT22;9071;48.220;14.480;2024-03-02T06:20:04;7.20;99.90
17891;DHT22;9071;48.220;14.480;2024-03-02T06:25:10;7.20;99.90
17891;DHT22;9071;48.220;14.480;2024-03-02T06:30:12;7.30;99.90
17891;DHT22;9071;48.220;14.480;2024-03-02T06:35:15;7.30;99.90
17891;DHT22;9071;48.220;14.480;2024-03-02T06:40:18;7.30;99.90
17891;DHT22;9071;48.220;14.480;2024-03-02T06:45:21;7.40;99.90
17891;DHT22;9071;48.220;14.480;2024-03-02T06:50:23;7.40;99.90
17891;DHT22;9071;48.220;14.480;2024-03-02T06:55:27;7.40;99.90
17891;DHT22;9071;48.220;14.480;2024-03-02T07:00:29;7.50;99.90
17891;DHT22;9071;48.220;14.480;2024-03-02T07:05:31;7.60;99.90
17891;DHT22;9071;48.220;14.480;2024-03-02T07:10:34;7.60;99.90
17891;DHT22;9071;48.220;14.480;2024-03-02T07:15:36;7.70;99.90
17891;DHT22;9071;48.220;14.480;2024-03-02T07:21:00;7.70;99.90
17891;DHT22;9071;48.220;14.480;2024-03-02T07:26:04;7.70;99.90
17891;DHT22;9071;48.220;14.480;2024-03-02T07:31:07;7.70;99.90
17891;DHT22;9071;48.220;14.480;2024-03-02T07:36:10;7.80;99.90
17891;DHT22;9071;48.220;14.480;2024-03-02T07:41:14;8.00;99.90
17891;DHT22;9071;48.220;14.480;2024-03-02T07:46:16;8.20;99.90
17891;DHT22;9071;48.220;14.480;2024-03-02T07:51:18;8.40;99.90
17891;DHT22;9071;48.220;14.480;2024-03-02T07:56:21;8.50;99.90
17891;DHT22;9071;48.220;14.480;2024-03-02T08:01:24;8.40;99.90
17891;DHT22;9071;48.220;14.480;2024-03-02T08:06:27;8.60;99.90
17891;DHT22;9071;48.220;14.480;2024-03-02T08:11:30;8.70;99.90
17891;DHT22;9071;48.220;14.480;2024-03-02T08:16:32;8.80;99.90
17891;DHT22;9071;48.220;14.480;2024-03-02T08:21:34;8.80;99.90
17891;DHT22;9071;48.220;14.480;2024-03-02T08:26:38;8.80;99.90
17891;DHT22;9071;48.220;14.480;2024-03-02T08:31:40;9.00;99.90
17891;DHT22;9071;48.220;14.480;2024-03-02T08:36:42;9.10;99.90
17891;DHT22;9071;48.220;14.480;2024-03-02T08:41:46;9.10;99.90
17891;DHT22;9071;48.220;14.480;2024-03-02T08:46:48;9.00;99.90
17891;DHT22;9071;48.220;14.480;2024-03-02T08:51:50;9.10;99.90
17891;DHT22;9071;48.220;14.480;2024-03-02T08:56:57;9.20;99.90
17891;DHT22;9071;48.220;14.480;2024-03-02T09:02:00;9.20;99.90
17891;DHT22;9071;48.220;14.480;2024-03-02T09:07:02;9.40;99.90
17891;DHT22;9071;48.220;14.480;2024-03-02T09:12:06;9.50;99.90
17891;DHT22;9071;48.220;14.480;2024-03-02T09:17:08;9.50;99.90
17891;DHT22;9071;48.220;14.480;2024-03-02T09:22:12;9.70;99.90
17891;DHT22;9071;48.220;14.480;2024-03-02T09:27:15;9.80;99.90
17891;DHT22;9071;48.220;14.480;2024-03-02T09:32:17;10.00;99.90
17891;DHT22;9071;48.220;14.480;2024-03-02T09:37:19;10.10;99.90
17891;DHT22;9071;48.220;14.480;2024-03-02T09:42:23;10.30;99.90
17891;DHT22;9071;48.220;14.480;2024-03-02T09:47:26;10.40;99.90
17891;DHT22;9071;48.220;14.480;2024-03-02T09:52:28;10.40;99.90
17891;DHT22;9071;48.220;14.480;2024-03-02T09:57:32;10.50;99.90
17891;DHT22;9071;48.220;14.480;2024-03-02T10:02:34;10.60;99.90
17891;DHT22;9071;48.220;14.480;2024-03-02T10:07:36;10.60;99.90
17891;DHT22;9071;48.220;14.480;2024-03-02T10:12:40;10.60;99.90
17891;DHT22;9071;48.220;14.480;2024-03-02T10:17:42;10.70;99.90
17891;DHT22;9071;48.220;14.480;2024-03-02T10:22:44;10.70;99.90
17891;DHT22;9071;48.220;14.480;2024-03-02T10:27:50;10.80;99.90
17891;DHT22;9071;48.220;14.480;2024-03-02T10:32:53;10.70;99.90
17891;DHT22;9071;48.220;14.480;2024-03-02T10:37:55;10.70;99.90
17891;DHT22;9071;48.220;14.480;2024-03-02T10:42:59;10.70;99.90
17891;DHT22;9071;48.220;14.480;2024-03-02T10:48:04;10.70;99.90
17891;DHT22;9071;48.220;14.480;2024-03-02T10:53:07;10.80;99.90
17891;DHT22;9071;48.220;14.480;2024-03-02T10:58:12;10.90;99.90
17891;DHT22;9071;48.220;14.480;2024-03-02T11:03:16;10.80;99.90
17891;DHT22;9071;48.220;14.480;2024-03-02T11:08:18;10.90;99.90
17891;DHT22;9071;48.220;14.480;2024-03-02T11:13:31;11.00;99.90
17891;DHT22;9071;48.220;14.480;2024-03-02T11:18:34;11.00;99.90
17891;DHT22;9071;48.220;14.480;2024-03-02T11:23:36;11.10;99.90
17891;DHT22;9071;48.220;14.480;2024-03-02T11:28:40;11.10;99.90
17891;DHT22;9071;48.220;14.480;2024-03-02T11:33:42;10.60;99.90
17891;DHT22;9071;48.220;14.480;2024-03-02T11:38:44;10.90;99.90
17891;DHT22;9071;48.220;14.480;2024-03-02T11:43:49;11.00;99.90
17891;DHT22;9071;48.220;14.480;2024-03-02T11:48:51;11.10;99.90
17891;DHT22;9071;48.220;14.480;2024-03-02T11:53:54;11.20;99.90
17891;DHT22;9071;48.220;14.480;2024-03-02T11:58:59;10.90;99.90
17891;DHT22;9071;48.220;14.480;2024-03-02T12:04:02;10.40;99.90
17891;DHT22;9071;48.220;14.480;2024-03-02T12:09:05;10.30;99.90
17891;DHT22;9071;48.220;14.480;2024-03-02T12:14:12;10.70;99.90
17891;DHT22;9071;48.220;14.480;2024-03-02T12:19:14;10.90;99.90
17891;DHT22;9071;48.220;14.480;2024-03-02T12:24:18;11.10;99.90
17891;DHT22;9071;48.220;14.480;2024-03-02T12:29:21;11.30;99.90
17891;DHT22;9071;48.220;14.480;2024-03-02T12:34:24;11.30;99.90
17891;DHT22;9071;48.220;14.480;2024-03-02T12:39:28;11.40;99.90
17891;DHT22;9071;48.220;14.480;2024-03-02T12:44:32;11.70;99.90
17891;DHT22;9071;48.220;14.480;2024-03-02T12:49:35;11.80;99.90
17891;DHT22;9071;48.220;14.480;2024-03-02T12:54:37;11.80;99.90
17891;DHT22;9071;48.220;14.480;2024-03-02T12:59:45;12.10;99.90
17891;DHT22;9071;48.220;14.480;2024-03-02T13:04:52;12.30;99.90
17891;DHT22;9071;48.220;14.480;2024-03-02T13:09:56;12.30;99.90
17891;DHT22;9071;48.220;14.480;2024-03-02T13:14:59;12.10;99.90
17891;DHT22;9071;48.220;14.480;2024-03-02T13:20:03;12.20;99.90
17891;DHT22;9071;48.220;14.480;2024-03-02T13:25:08;12.40;99.90
17891;DHT22;9071;48.220;14.480;2024-03-02T13:30:13;12.60;99.90
17891;DHT22;9071;48.220;14.480;2024-03-02T13:35:15;12.60;99.90
17891;DHT22;9071;48.220;14.480;2024-03-02T13:40:17;12.80;99.90
17891;DHT22;9071;48.220;14.480;2024-03-02T13:45:22;12.80;99.90
17891;DHT22;9071;48.220;14.480;2024-03-02T13:50:24;12.60;99.90
17891;DHT22;9071;48.220;14.480;2024-03-02T13:55:26;12.60;99.90
17891;DHT22;9071;48.220;14.480;2024-03-02T14:00:29;12.60;99.90
17891;DHT22;9071;48.220;14.480;2024-03-02T14:05:32;12.80;99.90
17891;DHT22;9071;48.220;14.480;2024-03-02T14:10:34;12.80;99.90
17891;DHT22;9071;48.220;14.480;2024-03-02T14:15:37;12.80;99.90
17891;DHT22;9071;48.220;14.480;2024-03-02T14:20:40;12.70;99.90
17891;DHT22;9071;48.220;14.480;2024-03-02T14:25:42;12.40;99.90
17891;DHT22;9071;48.220;14.480;2024-03-02T14:30:46;12.70;99.90
17891;DHT22;9071;48.220;14.480;2024-03-02T14:35:48;12.80;99.90
17891;DHT22;9071;48.220;14.480;2024-03-02T14:40:50;12.90;99.90
17891;DHT22;9071;48.220;14.480;2024-03-02T14:45:53;12.50;99.90
17891;DHT22;9071;48.220;14.480;2024-03-02T14:50:56;12.60;99.90
17891;DHT22;9071;48.220;14.480;2024-03-02T14:55:58;12.70;99.90
17891;DHT22;9071;48.220;14.480;2024-03-02T15:01:03;12.80;99.90
17891;DHT22;9071;48.220;14.480;2024-03-02T15:06:06;12.90;99.90
17891;DHT22;9071;48.220;14.480;2024-03-02T15:11:08;12.80;99.90
17891;DHT22;9071;48.220;14.480;2024-03-02T15:16:12;12.70;99.90
17891;DHT22;9071;48.220;14.480;2024-03-02T15:21:14;12.70;99.90
17891;DHT22;9071;48.220;14.480;2024-03-02T15:26:16;12.50;99.90
17891;DHT22;9071;48.220;14.480;2024-03-02T15:31:20;12.30;99.90
17891;DHT22;9071;48.220;14.480;2024-03-02T15:36:22;12.40;99.90
17891;DHT22;9071;48.220;14.480;2024-03-02T15:41:24;12.10;99.90
17891;DHT22;9071;48.220;14.480;2024-03-02T15:46:28;11.90;99.90
17891;DHT22;9071;48.220;14.480;2024-03-02T15:51:30;11.80;99.90
17891;DHT22;9071;48.220;14.480;2024-03-02T15:56:32;11.70;99.90
17891;DHT22;9071;48.220;14.480;2024-03-02T16:01:35;11.50;99.90
17891;DHT22;9071;48.220;14.480;2024-03-02T16:06:37;11.40;99.90
17891;DHT22;9071;48.220;14.480;2024-03-02T16:11:39;11.30;99.90
17891;DHT22;9071;48.220;14.480;2024-03-02T16:16:43;11.20;99.90
17891;DHT22;9071;48.220;14.480;2024-03-02T16:21:45;11.10;99.90
17891;DHT22;9071;48.220;14.480;2024-03-02T16:26:47;10.90;99.90
17891;DHT22;9071;48.220;14.480;2024-03-02T16:31:50;10.80;99.90
17891;DHT22;9071;48.220;14.480;2024-03-02T16:36:52;10.50;99.90
17891;DHT22;9071;48.220;14.480;2024-03-02T16:41:55;10.40;99.90
17891;DHT22;9071;48.220;14.480;2024-03-02T16:46:58;10.10;99.90
17891;DHT22;9071;48.220;14.480;2024-03-02T16:52:00;9.90;99.90
17891;DHT22;9071;48.220;14.480;2024-03-02T16:57:02;9.50;99.90
17891;DHT22;9071;48.220;14.480;2024-03-02T17:02:06;9.30;99.90
17891;DHT22;9071;48.220;14.480;2024-03-02T17:07:08;9.00;99.90
17891;DHT22;9071;48.220;14.480;2024-03-02T17:12:10;8.80;99.90
17891;DHT22;9071;48.220;14.480;2024-03-02T17:17:14;8.50;99.90
17891;DHT22;9071;48.220;14.480;2024-03-02T17:22:18;8.40;99.90
17891;DHT22;9071;48.220;14.480;2024-03-02T17:27:20;8.30;99.90
17891;DHT22;9071;48.220;14.480;2024-03-02T17:32:23;8.20;99.90
17891;DHT22;9071;48.220;14.480;2024-03-02T17:37:25;7.90;99.90
17891;DHT22;9071;48.220;14.480;2024-03-02T17:42:27;7.70;99.90
17891;DHT22;9071;48.220;14.480;2024-03-02T17:47:31;7.50;99.90
17891;DHT22;9071;48.220;14.480;2024-03-02T17:52:33;7.30;99.90
17891;DHT22;9071;48.220;14.480;2024-03-02T17:57:35;7.20;99.90
17891;DHT22;9071;48.220;14.480;2024-03-02T18:02:39;7.10;99.90
17891;DHT22;9071;48.220;14.480;2024-03-02T18:07:41;7.00;99.90
17891;DHT22;9071;48.220;14.480;2024-03-02T18:12:43;6.90;99.90
17891;DHT22;9071;48.220;14.480;2024-03-02T18:17:48;6.80;99.90
17891;DHT22;9071;48.220;14.480;2024-03-02T18:22:50;6.60;99.90
17891;DHT22;9071;48.220;14.480;2024-03-02T18:27:52;6.60;99.90
17891;DHT22;9071;48.220;14.480;2024-03-02T18:32:56;6.40;99.90
17891;DHT22;9071;48.220;14.480;2024-03-02T18:37:58;6.40;99.90
17891;DHT22;9071;48.220;14.480;2024-03-02T18:43:00;6.30;99.90
17891;DHT22;9071;48.220;14.480;2024-03-02T18:48:04;6.20;99.90
17891;DHT22;9071;48.220;14.480;2024-03-02T18:53:07;6.20;99.90
17891;DHT22;9071;48.220;14.480;2024-03-02T18:58:09;6.00;99.90
17891;DHT22;9071;48.220;14.480;2024-03-02T19:03:12;6.00;99.90
17891;DHT22;9071;48.220;14.480;2024-03-02T19:08:14;6.00;99.90
17891;DHT22;9071;48.220;14.480;2024-03-02T19:13:19;6.00;99.90
17891;DHT22;9071;48.220;14.480;2024-03-02T19:18:22;6.00;99.90
17891;DHT22;9071;48.220;14.480;2024-03-02T19:23:24;5.90;99.90
17891;DHT22;9071;48.220;14.480;2024-03-02T19:28:26;5.80;99.90
17891;DHT22;9071;48.220;14.480;2024-03-02T19:33:30;5.70;99.90
17891;DHT22;9071;48.220;14.480;2024-03-02T19:38:32;5.50;99.90
17891;DHT22;9071;48.220;14.480;2024-03-02T19:43:35;5.50;99.90
17891;DHT22;9071;48.220;14.480;2024-03-02T19:48:39;5.40;99.90
17891;DHT22;9071;48.220;14.480;2024-03-02T19:53:41;5.30;99.90
17891;DHT22;9071;48.220;14.480;2024-03-02T19:58:43;5.10;99.90
17891;DHT22;9071;48.220;14.480;2024-03-02T20:03:46;5.00;99.90
17891;DHT22;9071;48.220;14.480;2024-03-02T20:08:50;5.10;99.90
17891;DHT22;9071;48.220;14.480;2024-03-02T20:13:52;5.10;99.90
17891;DHT22;9071;48.220;14.480;2024-03-02T20:18:55;5.00;99.90
17891;DHT22;9071;48.220;14.480;2024-03-02T20:23:57;4.90;99.90
17891;DHT22;9071;48.220;14.480;2024-03-02T20:28:59;4.80;99.90
17891;DHT22;9071;48.220;14.480;2024-03-02T20:34:03;4.70;99.90
17891;DHT22;9071;48.220;14.480;2024-03-02T20:39:05;4.70;99.90
17891;DHT22;9071;48.220;14.480;2024-03-02T20:44:07;4.60;99.90
17891;DHT22;9071;48.220;14.480;2024-03-02T20:49:10;4.60;99.90
17891;DHT22;9071;48.220;14.480;2024-03-02T20:54:12;4.50;99.90
17891;DHT22;9071;48.220;14.480;2024-03-02T20:59:15;4.40;99.90
17891;DHT22;9071;48.220;14.480;2024-03-02T21:04:19;4.30;99.90
17891;DHT22;9071;48.220;14.480;2024-03-02T21:09:21;4.20;99.90
17891;DHT22;9071;48.220;14.480;2024-03-02T21:14:23;4.20;99.90
17891;DHT22;9071;48.220;14.480;2024-03-02T21:19:27;4.20;99.90
17891;DHT22;9071;48.220;14.480;2024-03-02T21:24:29;4.20;99.90
17891;DHT22;9071;48.220;14.480;2024-03-02T21:29:31;4.10;99.90
17891;DHT22;9071;48.220;14.480;2024-03-02T21:34:34;4.00;99.90
17891;DHT22;9071;48.220;14.480;2024-03-02T21:39:36;4.00;99.90
17891;DHT22;9071;48.220;14.480;2024-03-02T21:44:38;3.90;99.90
17891;DHT22;9071;48.220;14.480;2024-03-02T21:49:42;3.80;99.90
17891;DHT22;9071;48.220;14.480;2024-03-02T21:54:44;3.80;99.90
17891;DHT22;9071;48.220;14.480;2024-03-02T21:59:46;3.70;99.90
17891;DHT22;9071;48.220;14.480;2024-03-02T22:04:50;3.70;99.90
17891;DHT22;9071;48.220;14.480;2024-03-02T22:09:52;3.70;99.90
17891;DHT22;9071;48.220;14.480;2024-03-02T22:14:54;3.70;99.90
17891;DHT22;9071;48.220;14.480;2024-03-02T22:19:57;3.60;99.90
17891;DHT22;9071;48.220;14.480;2024-03-02T22:24:59;3.60;99.90
17891;DHT22;9071;48.220;14.480;2024-03-02T22:30:03;3.40;99.90
17891;DHT22;9071;48.220;14.480;2024-03-02T22:35:07;3.40;99.90
17891;DHT22;9071;48.220;14.480;2024-03-02T22:40:09;3.30;99.90
17891;DHT22;9071;48.220;14.480;2024-03-02T22:45:12;3.20;99.90
17891;DHT22;9071;48.220;14.480;2024-03-02T22:50:16;3.20;99.90
17891;DHT22;9071;48.220;14.480;2024-03-02T22:55:18;3.20;99.90
17891;DHT22;9071;48.220;14.480;2024-03-02T23:00:20;3.10;99.90
17891;DHT22;9071;48.220;14.480;2024-03-02T23:05:35;3.10;99.90
17891;DHT22;9071;48.220;14.480;2024-03-02T23:10:37;3.00;99.90
17891;DHT22;9071;48.220;14.480;2024-03-02T23:15:39;3.00;99.90
17891;DHT22;9071;48.220;14.480;2024-03-02T23:20:43;3.10;99.90
17891;DHT22;9071;48.220;14.480;2024-03-02T23:25:45;3.00;99.90
17891;DHT22;9071;48.220;14.480;2024-03-02T23:30:48;2.90;99.90
17891;DHT22;9071;48.220;14.480;2024-03-02T23:35:51;2.80;99.90
17891;DHT22;9071;48.220;14.480;2024-03-02T23:40:53;3.00;99.90
17891;DHT22;9071;48.220;14.480;2024-03-02T23:46:12;3.00;99.90
17891;DHT22;9071;48.220;14.480;2024-03-02T23:51:15;3.00;99.90
17891;DHT22;9071;48.220;14.480;2024-03-02T23:56:18;2.90;99.90
